createdAt,value
2018-08-16T00:01:08.568Z,1.50
2018-08-16T00:03:39.454Z,1.40
2018-08-16T00:06:08.806Z,1.40
2018-08-16T00:08:37.194Z,1.00
2018-08-16T00:11:05.236Z,1.40
2018-08-16T00:13:33.405Z,1.50
2018-08-16T00:16:01.623Z,1.37
2018-08-16T00:18:29.417Z,1.40
2018-08-16T00:20:58.592Z,1.57
2018-08-16T00:23:26.380Z,1.20
2018-08-16T00:25:54.171Z,1.50
2018-08-16T00:28:22.005Z,1.20
2018-08-16T00:30:49.729Z,1.20
2018-08-16T00:33:17.550Z,1.50
2018-08-16T00:35:45.443Z,1.10
2018-08-16T00:38:13.620Z,1.47
2018-08-16T00:40:41.408Z,1.33
2018-08-16T00:43:09.250Z,1.37
2018-08-16T00:45:37.096Z,1.53
2018-08-16T00:48:06.806Z,1.30
2018-08-16T00:50:34.593Z,1.13
2018-08-16T00:53:02.684Z,1.10
2018-08-16T00:55:30.513Z,1.30
2018-08-16T00:57:58.259Z,0.90
2018-08-16T01:00:26.065Z,1.20
2018-08-16T01:02:53.882Z,0.87
2018-08-16T01:05:21.697Z,1.27
2018-08-16T01:07:49.480Z,1.30
2018-08-16T01:10:17.351Z,1.17
2018-08-16T01:12:45.115Z,1.10
2018-08-16T01:15:15.926Z,1.20
2018-08-16T01:17:44.200Z,1.30
2018-08-16T01:20:12.105Z,1.43
2018-08-16T01:22:40.033Z,1.23
2018-08-16T01:25:09.456Z,1.20
2018-08-16T01:27:37.505Z,1.27
2018-08-16T01:30:06.231Z,1.23
2018-08-16T01:32:34.040Z,1.17
2018-08-16T01:35:01.837Z,1.60
2018-08-16T01:37:29.660Z,1.50
2018-08-16T01:39:57.533Z,1.53
2018-08-16T01:42:25.361Z,1.30
2018-08-16T01:44:53.148Z,1.47
2018-08-16T01:47:20.892Z,1.37
2018-08-16T01:49:48.703Z,1.50
2018-08-16T01:52:16.448Z,1.40
2018-08-16T01:54:44.240Z,1.23
2018-08-16T01:57:12.048Z,1.00
2018-08-16T01:59:39.863Z,1.33
2018-08-16T02:02:07.795Z,1.43
2018-08-16T02:04:35.520Z,1.30
2018-08-16T02:07:03.744Z,1.60
2018-08-16T02:09:31.776Z,1.70
2018-08-16T02:11:59.588Z,1.50
2018-08-16T02:14:27.383Z,1.80
2018-08-16T02:16:55.182Z,1.27
2018-08-16T02:19:23.020Z,1.23
2018-08-16T02:21:51.249Z,1.83
2018-08-16T02:24:19.004Z,1.77
2018-08-16T02:26:46.825Z,1.33
2018-08-16T02:29:14.655Z,1.73
2018-08-16T02:31:42.477Z,1.40
2018-08-16T02:34:10.273Z,1.80
2018-08-16T02:36:38.017Z,1.80
2018-08-16T02:39:08.449Z,1.93
2018-08-16T02:41:36.577Z,1.77
2018-08-16T02:44:05.197Z,2.13
2018-08-16T02:46:33.005Z,2.23
2018-08-16T02:49:00.866Z,2.43
2018-08-16T02:51:28.688Z,1.90
2018-08-16T02:53:56.404Z,2.20
2018-08-16T02:56:24.296Z,2.10
2018-08-16T02:58:52.071Z,1.87
2018-08-16T03:01:19.824Z,2.23
2018-08-16T03:03:47.621Z,2.00
2018-08-16T03:06:15.469Z,1.97
2018-08-16T03:08:43.246Z,1.90
2018-08-16T03:11:11.063Z,2.07
2018-08-16T03:13:38.900Z,1.53
2018-08-16T03:16:07.007Z,1.73
2018-08-16T03:18:34.792Z,1.80
2018-08-16T03:21:02.569Z,1.87
2018-08-16T03:23:30.372Z,2.00
2018-08-16T03:25:58.449Z,2.00
2018-08-16T03:28:26.202Z,1.60
2018-08-16T03:30:54.034Z,1.80
2018-08-16T03:33:21.835Z,1.70
2018-08-16T03:35:49.595Z,2.23
2018-08-16T03:38:17.373Z,1.67
2018-08-16T03:40:45.173Z,2.20
2018-08-16T03:43:12.919Z,2.03
2018-08-16T03:45:41.445Z,2.10
2018-08-16T03:48:09.274Z,1.90
2018-08-16T03:50:37.064Z,2.07
2018-08-16T03:53:05.179Z,2.00
2018-08-16T03:55:33.027Z,2.60
2018-08-16T03:58:00.773Z,2.10
2018-08-16T04:00:28.562Z,2.00
2018-08-16T04:02:56.357Z,2.17
2018-08-16T04:05:24.082Z,2.30
2018-08-16T04:07:51.832Z,2.00
2018-08-16T04:10:19.572Z,1.90
2018-08-16T04:12:47.269Z,2.30
2018-08-16T04:15:15.088Z,2.67
2018-08-16T04:17:42.817Z,2.63
2018-08-16T04:20:10.636Z,2.53
2018-08-16T04:22:38.393Z,2.37
2018-08-16T04:25:06.332Z,2.50
2018-08-16T04:27:34.088Z,1.90
2018-08-16T04:30:01.836Z,2.77
2018-08-16T04:32:29.603Z,1.90
2018-08-16T04:34:57.702Z,2.20
2018-08-16T04:37:25.899Z,1.83
2018-08-16T04:39:53.661Z,2.07
2018-08-16T04:42:21.434Z,2.07
2018-08-16T04:44:49.551Z,2.20
2018-08-16T04:47:17.274Z,2.60
2018-08-16T04:49:45.046Z,2.10
2018-08-16T04:52:12.833Z,1.80
2018-08-16T04:54:40.676Z,1.83
2018-08-16T04:57:08.438Z,1.90
2018-08-16T04:59:36.602Z,2.40
2018-08-16T05:02:05.532Z,2.23
2018-08-16T05:04:33.289Z,2.00
2018-08-16T05:07:01.436Z,1.97
2018-08-16T05:09:29.182Z,1.50
2018-08-16T05:11:57.259Z,1.90
2018-08-16T05:14:25.061Z,2.50
2018-08-16T05:16:52.846Z,2.40
2018-08-16T05:19:20.633Z,2.40
2018-08-16T05:21:48.360Z,1.80
2018-08-16T05:24:16.099Z,1.87
2018-08-16T05:26:43.893Z,2.27
2018-08-16T05:29:11.647Z,2.03
2018-08-16T05:31:39.495Z,2.20
2018-08-16T05:34:07.332Z,2.00
2018-08-16T05:36:35.171Z,2.20
2018-08-16T05:39:04.361Z,2.00
2018-08-16T05:41:32.157Z,2.00
2018-08-16T05:44:00.031Z,1.60
2018-08-16T05:46:27.832Z,1.87
2018-08-16T05:48:55.604Z,1.80
2018-08-16T05:51:23.427Z,1.83
2018-08-16T05:53:51.614Z,1.70
2018-08-16T05:56:19.421Z,1.50
2018-08-16T05:58:47.211Z,1.50
2018-08-16T06:01:15.012Z,1.70
2018-08-16T06:03:42.791Z,1.20
2018-08-16T06:06:10.621Z,1.57
2018-08-16T06:08:38.640Z,0.97
2018-08-16T06:11:06.472Z,1.37
2018-08-16T06:13:34.642Z,1.43
2018-08-16T06:16:02.408Z,1.33
2018-08-16T06:18:30.734Z,1.20
2018-08-16T06:20:58.584Z,1.30
2018-08-16T06:23:26.425Z,1.23
2018-08-16T06:25:54.181Z,1.23
2018-08-16T06:28:21.955Z,1.07
2018-08-16T06:30:49.680Z,1.30
2018-08-16T06:33:17.482Z,1.00
2018-08-16T06:35:45.289Z,1.00
2018-08-16T06:38:13.073Z,1.10
2018-08-16T06:40:40.880Z,1.30
2018-08-16T06:43:08.754Z,1.07
2018-08-16T06:45:36.566Z,1.20
2018-08-16T06:48:04.384Z,0.93
2018-08-16T06:50:32.194Z,1.10
2018-08-16T06:52:59.972Z,1.47
2018-08-16T06:55:27.834Z,1.50
2018-08-16T06:57:55.617Z,1.83
2018-08-16T07:00:23.380Z,1.10
2018-08-16T07:02:51.139Z,1.40
2018-08-16T07:05:18.885Z,1.00
2018-08-16T07:07:46.722Z,1.30
2018-08-16T07:10:14.780Z,0.90
2018-08-16T07:12:42.590Z,1.07
2018-08-16T07:15:13.193Z,1.20
2018-08-16T07:17:41.589Z,0.80
2018-08-16T07:20:09.462Z,1.07
2018-08-16T07:22:37.233Z,1.13
2018-08-16T07:25:05.765Z,1.10
2018-08-16T07:27:33.569Z,1.23
2018-08-16T07:30:01.402Z,1.07
2018-08-16T07:32:29.184Z,1.10
2018-08-16T07:34:57.015Z,1.23
2018-08-16T07:37:24.794Z,1.20
2018-08-16T07:39:52.604Z,1.00
2018-08-16T07:42:20.492Z,1.15
2018-08-16T07:44:48.320Z,0.90
2018-08-16T07:47:16.135Z,1.20
2018-08-16T07:49:43.986Z,1.12
2018-08-16T07:52:11.892Z,0.90
2018-08-16T07:54:39.662Z,1.17
2018-08-16T07:57:07.458Z,1.03
2018-08-16T07:59:35.482Z,0.95
2018-08-16T08:02:03.754Z,0.95
2018-08-16T08:04:31.589Z,1.10
2018-08-16T08:06:59.527Z,1.00
2018-08-16T08:09:27.424Z,1.10
2018-08-16T08:11:55.145Z,1.00
2018-08-16T08:14:22.971Z,1.23
2018-08-16T08:16:50.736Z,0.80
2018-08-16T08:19:18.564Z,1.17
2018-08-16T08:21:46.443Z,1.20
2018-08-16T08:24:14.221Z,1.20
2018-08-16T08:26:42.053Z,0.90
2018-08-16T08:29:09.916Z,0.98
2018-08-16T08:31:37.813Z,1.37
2018-08-16T08:34:05.659Z,1.27
2018-08-16T08:36:44.656Z,1.00
2018-08-16T08:39:12.417Z,1.42
2018-08-16T08:41:40.236Z,1.05
2018-08-16T08:44:17.135Z,1.17
2018-08-16T08:46:45.676Z,1.00
2018-08-16T08:49:13.520Z,1.30
2018-08-16T08:51:41.333Z,1.25
2018-08-16T08:54:34.152Z,1.32
2018-08-16T08:57:13.224Z,1.22
2018-08-16T08:59:41.340Z,1.07
2018-08-16T09:02:10.323Z,1.00
2018-08-16T09:04:38.164Z,0.80
2018-08-16T09:07:08.380Z,0.80
2018-08-16T09:09:36.276Z,0.95
2018-08-16T09:12:15.981Z,1.10
2018-08-16T09:14:55.505Z,1.42
2018-08-16T09:17:23.363Z,1.00
2018-08-16T09:19:51.240Z,1.35
2018-08-16T09:22:19.028Z,1.00
2018-08-16T09:24:46.945Z,0.85
2018-08-16T09:27:14.712Z,0.90
2018-08-16T09:30:20.066Z,1.12
2018-08-16T09:32:59.165Z,0.88
2018-08-16T09:35:27.425Z,1.10
2018-08-16T09:37:56.808Z,0.80
2018-08-16T09:40:24.750Z,0.95
2018-08-16T09:42:52.708Z,0.70
2018-08-16T09:45:32.433Z,0.90
2018-08-16T09:48:11.760Z,1.00
2018-08-16T09:50:39.536Z,0.98
2018-08-16T09:53:09.556Z,1.00
2018-08-16T09:55:37.437Z,0.88
2018-08-16T09:58:06.125Z,1.02
2018-08-16T10:00:39.397Z,1.00
2018-08-16T10:03:07.240Z,0.85
2018-08-16T10:05:35.264Z,0.90
2018-08-16T10:08:03.118Z,1.07
2018-08-16T10:10:31.136Z,1.12
2018-08-16T10:12:58.888Z,1.05
2018-08-16T10:15:26.716Z,1.17
2018-08-16T10:17:54.551Z,0.87
2018-08-16T10:20:22.380Z,1.00
2018-08-16T10:22:50.188Z,1.10
2018-08-16T10:25:18.016Z,1.00
2018-08-16T10:27:46.116Z,1.02
2018-08-16T10:30:14.709Z,0.93
2018-08-16T10:32:43.812Z,0.70
2018-08-16T10:35:11.559Z,1.07
2018-08-16T10:37:39.663Z,1.00
2018-08-16T10:40:09.432Z,0.93
2018-08-16T10:42:37.270Z,1.00
2018-08-16T10:45:06.230Z,0.80
2018-08-16T10:47:34.045Z,1.00
2018-08-16T10:50:02.731Z,1.07
2018-08-16T10:52:30.565Z,0.80
2018-08-16T10:54:58.660Z,0.93
2018-08-16T10:57:26.464Z,0.87
2018-08-16T10:59:54.272Z,0.80
2018-08-16T11:02:22.488Z,0.70
2018-08-16T11:04:50.366Z,0.95
2018-08-16T11:07:18.171Z,0.82
2018-08-16T11:09:46.416Z,1.05
2018-08-16T11:12:14.252Z,0.93
2018-08-16T11:14:42.184Z,0.60
2018-08-16T11:17:10.007Z,1.20
2018-08-16T11:19:37.752Z,0.75
2018-08-16T11:22:06.125Z,0.80
2018-08-16T11:24:33.955Z,1.20
2018-08-16T11:27:01.722Z,0.80
2018-08-16T11:29:29.579Z,1.12
2018-08-16T11:31:57.349Z,0.88
2018-08-16T11:34:25.121Z,0.98
2018-08-16T11:36:53.293Z,0.95
2018-08-16T11:39:21.176Z,1.30
2018-08-16T11:41:48.964Z,1.10
2018-08-16T11:44:16.703Z,1.30
2018-08-16T11:46:44.546Z,1.15
2018-08-16T11:49:12.328Z,1.00
2018-08-16T11:51:40.084Z,0.90
2018-08-16T11:54:07.922Z,1.00
2018-08-16T11:56:35.752Z,1.00
2018-08-16T11:59:03.602Z,0.90
2018-08-16T12:01:31.437Z,1.27
2018-08-16T12:04:05.796Z,0.95
2018-08-16T12:06:33.596Z,0.88
2018-08-16T12:09:01.402Z,1.30
2018-08-16T12:11:29.166Z,1.10
2018-08-16T12:13:56.960Z,1.00
2018-08-16T12:16:24.910Z,1.20
2018-08-16T12:18:52.656Z,1.43
2018-08-16T12:21:20.400Z,1.02
2018-08-16T12:23:48.171Z,1.10
2018-08-16T12:26:16.004Z,1.35
2018-08-16T12:28:43.756Z,1.27
2018-08-16T12:31:11.503Z,1.27
2018-08-16T12:33:39.297Z,1.02
2018-08-16T12:36:07.132Z,1.00
2018-08-16T12:38:34.893Z,1.43
2018-08-16T12:41:03.216Z,1.40
2018-08-16T12:43:34.423Z,1.20
2018-08-16T12:46:02.237Z,1.53
2018-08-16T12:48:29.984Z,1.40
2018-08-16T12:50:57.734Z,1.20
2018-08-16T12:53:25.607Z,1.30
2018-08-16T12:55:53.373Z,1.30
2018-08-16T12:58:21.204Z,1.07
2018-08-16T13:00:49.013Z,1.00
2018-08-16T13:03:16.853Z,0.93
2018-08-16T13:05:44.652Z,0.80
2018-08-16T13:08:12.589Z,1.00
2018-08-16T13:10:40.389Z,0.97
2018-08-16T13:13:08.234Z,1.00
2018-08-16T13:15:39.223Z,1.30
2018-08-16T13:18:07.073Z,1.33
2018-08-16T13:20:34.901Z,1.43
2018-08-16T13:23:02.718Z,1.30
2018-08-16T13:25:30.525Z,1.27
2018-08-16T13:27:58.414Z,1.00
2018-08-16T13:30:26.219Z,1.10
2018-08-16T13:32:54.043Z,1.10
2018-08-16T13:35:21.925Z,1.03
2018-08-16T13:37:49.855Z,1.10
2018-08-16T13:40:17.827Z,1.10
2018-08-16T13:42:46.333Z,1.10
2018-08-16T13:45:14.481Z,0.90
2018-08-16T13:47:43.941Z,1.10
2018-08-16T13:50:11.755Z,1.07
2018-08-16T13:52:39.847Z,1.37
2018-08-16T13:55:07.863Z,1.00
2018-08-16T13:57:35.869Z,1.10
2018-08-16T14:00:05.136Z,1.20
2018-08-16T14:02:33.081Z,0.90
2018-08-16T14:05:00.934Z,1.17
2018-08-16T14:07:28.685Z,1.10
2018-08-16T14:09:56.472Z,1.33
2018-08-16T14:12:24.295Z,1.10
2018-08-16T14:14:52.068Z,0.90
2018-08-16T14:17:19.982Z,1.40
2018-08-16T14:19:48.164Z,1.07
2018-08-16T14:22:16.276Z,1.20
2018-08-16T14:24:44.095Z,1.30
2018-08-16T14:27:12.813Z,1.40
2018-08-16T14:29:40.763Z,1.00
2018-08-16T14:32:08.763Z,0.97
2018-08-16T14:34:36.461Z,1.13
2018-08-16T14:37:05.069Z,1.40
2018-08-16T14:39:32.903Z,1.30
2018-08-16T14:42:00.871Z,1.40
2018-08-16T14:44:29.056Z,1.30
2018-08-16T14:46:57.238Z,1.50
2018-08-16T14:49:24.971Z,1.50
2018-08-16T14:51:52.803Z,1.47
2018-08-16T14:54:20.604Z,1.70
2018-08-16T14:56:48.369Z,1.77
2018-08-16T14:59:16.188Z,1.57
2018-08-16T15:01:44.098Z,1.53
2018-08-16T15:04:11.959Z,1.37
2018-08-16T15:06:40.708Z,1.30
2018-08-16T15:09:10.004Z,1.60
2018-08-16T15:11:37.922Z,2.03
2018-08-16T15:14:06.198Z,1.53
2018-08-16T15:16:34.039Z,1.40
2018-08-16T15:19:02.712Z,2.37
2018-08-16T15:21:32.200Z,1.90
2018-08-16T15:24:01.076Z,1.80
2018-08-16T15:26:28.905Z,1.83
2018-08-16T15:28:57.926Z,1.63
2018-08-16T15:31:26.485Z,1.50
2018-08-16T15:33:54.950Z,1.30
2018-08-16T15:36:23.972Z,1.87
2018-08-16T15:38:52.121Z,1.70
2018-08-16T15:41:19.928Z,1.83
2018-08-16T15:43:48.065Z,1.47
2018-08-16T15:46:16.336Z,1.67
2018-08-16T15:48:46.286Z,1.80
2018-08-16T15:51:15.584Z,1.70
2018-08-16T15:53:44.152Z,1.50
2018-08-16T15:56:12.274Z,1.80
2018-08-16T15:58:40.548Z,1.80
2018-08-16T16:01:08.592Z,1.87
2018-08-16T16:03:36.519Z,1.70
2018-08-16T16:06:05.954Z,1.60
2018-08-16T16:08:35.905Z,1.90
2018-08-16T16:11:04.063Z,1.53
2018-08-16T16:13:32.200Z,1.80
2018-08-16T16:16:00.335Z,1.60
2018-08-16T16:18:28.545Z,1.60
2018-08-16T16:20:57.512Z,1.40
2018-08-16T16:23:27.537Z,1.30
2018-08-16T16:25:59.180Z,1.60
2018-08-16T16:28:27.368Z,1.63
2018-08-16T16:30:55.909Z,1.57
2018-08-16T16:33:25.416Z,1.70
2018-08-16T16:35:53.480Z,1.90
2018-08-16T16:38:21.700Z,1.63
2018-08-16T16:40:49.763Z,2.33
2018-08-16T16:43:19.967Z,1.70
2018-08-16T16:45:47.764Z,1.53
2018-08-16T16:48:15.588Z,1.80
2018-08-16T16:50:43.392Z,1.40
2018-08-16T16:53:11.155Z,1.73
2018-08-16T16:55:38.986Z,1.60
2018-08-16T16:58:07.082Z,1.57
2018-08-16T17:00:34.999Z,2.00
2018-08-16T17:03:03.279Z,1.90
2018-08-16T17:05:31.022Z,1.70
2018-08-16T17:07:58.885Z,1.43
2018-08-16T17:10:26.773Z,1.40
2018-08-16T17:12:54.568Z,1.60
2018-08-16T17:15:22.410Z,1.57
2018-08-16T17:17:50.182Z,2.17
2018-08-16T17:20:18.005Z,1.33
2018-08-16T17:22:45.830Z,1.60
2018-08-16T17:25:13.645Z,1.80
2018-08-16T17:27:41.437Z,1.70
2018-08-16T17:30:09.262Z,1.60
2018-08-16T17:32:37.036Z,1.57
2018-08-16T17:35:04.836Z,1.80
2018-08-16T17:37:32.664Z,1.63
2018-08-16T17:40:00.460Z,2.13
2018-08-16T17:42:28.178Z,1.40
2018-08-16T17:44:56.338Z,1.87
2018-08-16T17:47:24.124Z,1.20
2018-08-16T17:49:51.871Z,1.67
2018-08-16T17:52:19.674Z,1.40
2018-08-16T17:54:47.503Z,1.57
2018-08-16T17:57:15.283Z,1.47
2018-08-16T17:59:43.129Z,1.63
2018-08-16T18:02:10.887Z,1.47
2018-08-16T18:04:38.679Z,1.60
2018-08-16T18:07:06.464Z,1.30
2018-08-16T18:09:34.407Z,1.30
2018-08-16T18:12:02.197Z,1.20
2018-08-16T18:14:29.957Z,1.50
2018-08-16T18:16:57.780Z,1.50
2018-08-16T18:19:25.572Z,1.57
2018-08-16T18:21:53.317Z,1.47
2018-08-16T18:24:21.158Z,1.57
2018-08-16T18:26:48.944Z,1.53
2018-08-16T18:29:17.352Z,1.37
2018-08-16T18:31:45.157Z,1.33
2018-08-16T18:34:12.945Z,1.20
2018-08-16T18:36:40.734Z,2.20
2018-08-16T18:39:09.092Z,1.60
2018-08-16T18:41:37.194Z,1.40
2018-08-16T18:44:05.073Z,1.30
2018-08-16T18:46:32.915Z,1.20
2018-08-16T18:49:00.638Z,1.30
2018-08-16T18:51:29.070Z,1.80
2018-08-16T18:53:57.465Z,1.50
2018-08-16T18:56:26.343Z,1.70
2018-08-16T18:58:54.577Z,1.30
2018-08-16T19:01:22.468Z,1.20
2018-08-16T19:03:51.616Z,1.83
2018-08-16T19:06:19.456Z,1.47
2018-08-16T19:08:51.715Z,1.63
2018-08-16T19:11:20.492Z,1.57
2018-08-16T19:13:49.326Z,1.60
2018-08-16T19:16:17.153Z,1.33
2018-08-16T19:18:45.075Z,1.70
2018-08-16T19:21:14.514Z,1.57
2018-08-16T19:23:43.662Z,1.70
2018-08-16T19:26:12.678Z,1.70
2018-08-16T19:28:40.954Z,1.63
2018-08-16T19:31:08.759Z,2.30
2018-08-16T19:33:36.568Z,1.90
2018-08-16T19:36:04.446Z,2.70
2018-08-16T19:38:32.279Z,1.83
2018-08-16T19:41:00.096Z,1.87
2018-08-16T19:43:27.862Z,2.10
2018-08-16T19:45:55.630Z,1.73
2018-08-16T19:48:23.401Z,1.80
2018-08-16T19:50:51.179Z,1.77
2018-08-16T19:53:18.941Z,2.00
2018-08-16T19:55:46.800Z,2.20
2018-08-16T19:58:14.552Z,1.77
2018-08-16T20:00:42.383Z,1.90
2018-08-16T20:03:10.234Z,1.67
2018-08-16T20:05:38.084Z,1.90
2018-08-16T20:08:06.341Z,2.23
2018-08-16T20:10:35.141Z,1.67
2018-08-16T20:13:03.350Z,1.97
2018-08-16T20:15:31.224Z,1.87
2018-08-16T20:18:00.074Z,2.00
2018-08-16T20:20:27.962Z,1.90
2018-08-16T20:22:55.773Z,2.20
2018-08-16T20:25:23.534Z,2.20
2018-08-16T20:27:51.641Z,2.40
2018-08-16T20:30:19.521Z,2.33
2018-08-16T20:32:47.833Z,2.00
2018-08-16T20:35:15.612Z,1.97
2018-08-16T20:37:44.504Z,2.30
2018-08-16T20:40:12.294Z,2.40
2018-08-16T20:42:40.130Z,2.60
2018-08-16T20:45:08.947Z,2.43
2018-08-16T20:47:37.255Z,2.10
2018-08-16T20:50:06.578Z,1.87
2018-08-16T20:52:34.411Z,2.30
2018-08-16T20:55:02.207Z,2.07
2018-08-16T20:57:30.165Z,2.07
2018-08-16T20:59:57.845Z,2.20
2018-08-16T21:02:25.608Z,2.13
2018-08-16T21:04:53.436Z,2.33
2018-08-16T21:07:21.207Z,2.40
2018-08-16T21:09:50.068Z,2.70
2018-08-16T21:12:17.946Z,2.70
2018-08-16T21:14:46.442Z,2.67
2018-08-16T21:17:14.255Z,2.23
2018-08-16T21:19:42.035Z,2.60
2018-08-16T21:22:09.825Z,2.20
2018-08-16T21:24:37.585Z,2.50
2018-08-16T21:27:05.335Z,2.67
2018-08-16T21:29:33.071Z,2.23
2018-08-16T21:32:00.848Z,2.63
2018-08-16T21:34:28.876Z,2.80
2018-08-16T21:36:56.942Z,2.77
2018-08-16T21:39:24.778Z,2.27
2018-08-16T21:41:52.713Z,2.10
2018-08-16T21:44:20.553Z,2.37
2018-08-16T21:46:48.365Z,3.10
2018-08-16T21:49:16.102Z,2.37
2018-08-16T21:51:43.871Z,2.27
2018-08-16T21:54:11.664Z,2.30
2018-08-16T21:56:39.453Z,2.30
2018-08-16T21:59:07.279Z,2.27
2018-08-16T22:01:35.241Z,2.43
2018-08-16T22:04:03.083Z,2.27
2018-08-16T22:06:42.152Z,2.10
2018-08-16T22:09:11.642Z,2.50
2018-08-16T22:11:39.620Z,2.33
2018-08-16T22:14:07.460Z,2.63
2018-08-16T22:16:35.169Z,2.60
2018-08-16T22:19:03.034Z,2.57
2018-08-16T22:21:30.772Z,1.90
2018-08-16T22:23:58.553Z,2.30
2018-08-16T22:26:26.400Z,2.40
2018-08-16T22:28:54.128Z,2.87
2018-08-16T22:31:21.964Z,2.07
2018-08-16T22:33:49.788Z,2.60
2018-08-16T22:36:17.665Z,2.37
2018-08-16T22:38:48.883Z,2.47
2018-08-16T22:41:16.789Z,2.10
2018-08-16T22:43:44.524Z,2.80
2018-08-16T22:46:13.366Z,2.23
2018-08-16T22:48:41.154Z,2.00
2018-08-16T22:51:08.938Z,2.30
2018-08-16T22:53:37.037Z,2.00
2018-08-16T22:56:07.281Z,2.10
2018-08-16T22:58:35.073Z,2.00
2018-08-16T23:01:02.936Z,2.20
2018-08-16T23:03:30.863Z,2.07
2018-08-16T23:05:58.589Z,2.20
2018-08-16T23:08:26.411Z,2.27
2018-08-16T23:10:54.185Z,2.00
2018-08-16T23:13:22.256Z,1.77
2018-08-16T23:15:50.076Z,1.90
2018-08-16T23:18:17.876Z,2.13
2018-08-16T23:20:45.692Z,2.03
2018-08-16T23:23:13.455Z,2.43
2018-08-16T23:25:41.312Z,2.40
2018-08-16T23:28:09.096Z,2.13
2018-08-16T23:30:36.927Z,2.00
2018-08-16T23:33:04.768Z,2.03
2018-08-16T23:35:32.549Z,2.50
2018-08-16T23:38:01.615Z,2.00
2018-08-16T23:40:29.472Z,2.27
2018-08-16T23:42:57.212Z,2.17
2018-08-16T23:45:25.017Z,2.70
2018-08-16T23:48:04.234Z,2.70
2018-08-16T23:50:32.035Z,2.57
2018-08-16T23:53:00.142Z,2.20
2018-08-16T23:55:28.168Z,2.73
2018-08-16T23:57:55.917Z,2.03
